createdAt,value
2022-08-05T00:00:30.429Z,18.61
2022-08-05T00:02:32.257Z,18.45
2022-08-05T00:04:34.103Z,18.50
2022-08-05T00:06:36.343Z,18.51
2022-08-05T00:08:38.939Z,18.53
2022-08-05T00:10:41.986Z,18.49
2022-08-05T00:12:56.170Z,18.40
2022-08-05T00:14:58.602Z,18.45
2022-08-05T00:17:01.706Z,18.50
2022-08-05T00:19:04.731Z,18.44
2022-08-05T00:21:08.509Z,18.41
2022-08-05T00:23:12.800Z,18.43
2022-08-05T00:25:15.278Z,18.46
2022-08-05T00:27:18.153Z,18.41
2022-08-05T00:29:22.702Z,18.46
2022-08-05T00:31:54.456Z,18.31
2022-08-05T00:34:56.561Z,18.46
2022-08-05T00:36:16.473Z,18.39
2022-08-05T00:38:33.913Z,18.25
2022-08-05T00:40:53.135Z,18.49
2022-08-05T00:42:57.305Z,18.39
2022-08-05T00:44:59.395Z,18.41
2022-08-05T00:47:01.837Z,18.24
2022-08-05T00:49:06.082Z,18.37
2022-08-05T00:51:51.807Z,18.21
2022-08-05T00:54:00.032Z,17.97
2022-08-05T00:55:53.432Z,18.22
2022-08-05T00:57:58.254Z,18.19
2022-08-05T01:00:00.950Z,18.02
2022-08-05T01:02:02.677Z,18.12
2022-08-05T01:04:13.636Z,17.89
2022-08-05T01:06:16.161Z,17.98
2022-08-05T01:08:41.774Z,17.97
2022-08-05T01:10:52.947Z,17.92
2022-08-05T01:13:03.277Z,17.86
2022-08-05T01:15:35.914Z,17.96
2022-08-05T01:17:43.990Z,17.88
2022-08-05T01:20:00.784Z,17.81
2022-08-05T01:22:38.195Z,17.93
2022-08-05T01:24:50.781Z,17.88
2022-08-05T01:27:17.622Z,17.94
2022-08-05T01:29:38.243Z,17.83
2022-08-05T01:31:59.447Z,17.68
2022-08-05T01:34:07.020Z,17.79
2022-08-05T01:36:16.298Z,17.63
2022-08-05T01:38:27.167Z,17.86
2022-08-05T01:40:31.538Z,17.86
2022-08-05T01:42:34.717Z,17.76
2022-08-05T01:44:38.053Z,17.74
2022-08-05T01:46:46.361Z,17.69
2022-08-05T01:48:49.977Z,17.52
2022-08-05T01:50:53.236Z,17.76
2022-08-05T01:52:59.342Z,17.73
2022-08-05T01:55:05.648Z,17.69
2022-08-05T01:58:10.549Z,17.64
2022-08-05T01:59:34.095Z,17.32
2022-08-05T02:01:39.993Z,17.56
2022-08-05T02:03:46.749Z,17.68
2022-08-05T02:05:50.044Z,17.56
2022-08-05T02:08:00.305Z,17.50
2022-08-05T02:10:05.219Z,17.43
2022-08-05T02:12:21.549Z,17.37
2022-08-05T02:14:58.668Z,17.39
2022-08-05T02:18:28.825Z,17.37
2022-08-05T02:19:51.177Z,17.09
2022-08-05T02:22:05.527Z,17.36
2022-08-05T02:24:14.191Z,17.38
2022-08-05T02:26:26.515Z,17.23
2022-08-05T02:28:35.233Z,17.35
2022-08-05T02:30:51.898Z,17.07
2022-08-05T02:32:59.487Z,17.28
2022-08-05T02:35:14.182Z,17.25
2022-08-05T02:37:17.430Z,17.33
2022-08-05T02:39:21.708Z,17.35
2022-08-05T02:41:28.322Z,17.20
2022-08-05T02:43:32.998Z,17.34
2022-08-05T02:45:52.346Z,17.39
2022-08-05T02:48:06.999Z,17.30
2022-08-05T02:50:15.133Z,17.34
2022-08-05T02:52:29.978Z,17.29
2022-08-05T02:54:36.976Z,17.10
2022-08-05T02:56:41.848Z,17.30
2022-08-05T02:58:52.720Z,17.35
2022-08-05T03:00:56.725Z,17.22
2022-08-05T03:03:00.525Z,17.09
2022-08-05T03:05:02.957Z,17.22
2022-08-05T03:07:06.635Z,17.15
2022-08-05T03:09:36.344Z,17.09
2022-08-05T03:11:54.456Z,17.20
2022-08-05T03:14:03.195Z,17.19
2022-08-05T03:16:05.570Z,17.13
2022-08-05T03:18:11.406Z,17.24
2022-08-05T03:20:13.837Z,17.20
2022-08-05T03:22:19.087Z,17.42
2022-08-05T03:24:35.025Z,17.42
2022-08-05T03:26:37.988Z,17.38
2022-08-05T03:28:39.840Z,17.48
2022-08-05T03:30:43.268Z,17.54
2022-08-05T03:32:45.052Z,17.46
2022-08-05T03:34:51.258Z,17.47
2022-08-05T03:36:53.562Z,17.50
2022-08-05T03:38:55.932Z,17.29
2022-08-05T03:40:58.103Z,17.50
2022-08-05T03:43:01.504Z,17.47
2022-08-05T03:45:23.575Z,17.55
2022-08-05T03:47:26.179Z,17.63
2022-08-05T03:49:51.393Z,17.57
2022-08-05T03:52:48.289Z,17.44
2022-08-05T03:55:50.220Z,17.69
2022-08-05T03:57:00.004Z,17.58
2022-08-05T03:59:08.653Z,17.62
2022-08-05T04:01:13.011Z,17.48
2022-08-05T04:03:28.572Z,17.68
2022-08-05T04:05:34.711Z,17.60
2022-08-05T04:07:57.144Z,17.68
2022-08-05T04:10:01.682Z,17.79
2022-08-05T04:12:05.356Z,17.94
2022-08-05T04:14:29.414Z,18.10
2022-08-05T04:16:33.726Z,18.11
2022-08-05T04:18:36.334Z,18.25
2022-08-05T04:20:38.206Z,18.53
2022-08-05T04:22:43.647Z,18.48
2022-08-05T04:24:52.734Z,18.60
2022-08-05T04:26:54.894Z,18.65
2022-08-05T04:29:01.030Z,18.80
2022-08-05T04:31:10.524Z,18.54
2022-08-05T04:33:14.011Z,18.82
2022-08-05T04:35:19.597Z,18.82
2022-08-05T04:37:22.934Z,18.49
2022-08-05T04:39:43.459Z,19.06
2022-08-05T04:41:46.137Z,18.94
2022-08-05T04:43:52.903Z,19.25
2022-08-05T04:45:55.764Z,19.53
2022-08-05T04:48:16.534Z,19.61
2022-08-05T04:50:28.946Z,19.89
2022-08-05T04:52:39.317Z,19.99
2022-08-05T04:54:41.099Z,20.09
2022-08-05T04:56:43.562Z,20.32
2022-08-05T04:58:45.704Z,20.23
2022-08-05T05:00:50.746Z,20.29
2022-08-05T05:02:52.785Z,20.45
2022-08-05T05:05:01.713Z,20.74
2022-08-05T05:07:04.384Z,20.69
2022-08-05T05:09:14.116Z,20.72
2022-08-05T05:11:19.275Z,20.83
2022-08-05T05:13:22.618Z,21.03
2022-08-05T05:15:57.488Z,20.97
2022-08-05T05:17:57.008Z,21.09
2022-08-05T05:19:59.655Z,21.33
2022-08-05T05:22:03.677Z,21.31
2022-08-05T05:24:23.534Z,21.36
2022-08-05T05:26:46.429Z,21.29
2022-08-05T05:28:49.816Z,21.40
2022-08-05T05:30:51.759Z,21.52
2022-08-05T05:32:53.798Z,21.82
2022-08-05T05:34:55.705Z,21.99
2022-08-05T05:36:59.499Z,22.31
2022-08-05T05:39:03.733Z,22.09
2022-08-05T05:41:07.624Z,22.16
2022-08-05T05:43:09.609Z,22.23
2022-08-05T05:45:11.910Z,22.31
2022-08-05T05:47:22.125Z,22.26
2022-08-05T05:49:24.260Z,22.26
2022-08-05T05:51:27.905Z,22.52
2022-08-05T05:53:29.879Z,22.50
2022-08-05T05:56:01.377Z,22.72
2022-08-05T05:58:05.147Z,22.89
2022-08-05T06:00:13.198Z,23.25
2022-08-05T06:02:15.088Z,23.41
2022-08-05T06:04:18.740Z,23.67
2022-08-05T06:06:23.910Z,23.84
2022-08-05T06:08:32.778Z,23.67
2022-08-05T06:10:36.582Z,23.69
2022-08-05T06:12:42.223Z,23.64
2022-08-05T06:14:44.191Z,24.13
2022-08-05T06:16:46.496Z,24.23
2022-08-05T06:18:48.335Z,24.24
2022-08-05T06:20:55.437Z,24.61
2022-08-05T06:22:58.765Z,24.66
2022-08-05T06:25:00.580Z,24.84
2022-08-05T06:27:04.029Z,25.36
2022-08-05T06:29:42.948Z,25.72
2022-08-05T06:31:30.599Z,25.95
2022-08-05T06:34:06.044Z,26.00
2022-08-05T06:36:05.656Z,26.61
2022-08-05T06:38:11.973Z,26.42
2022-08-05T06:40:18.130Z,26.93
2022-08-05T06:42:23.062Z,27.04
2022-08-05T06:44:27.316Z,27.01
2022-08-05T06:46:30.156Z,27.15
2022-08-05T06:48:53.466Z,27.51
2022-08-05T06:50:54.129Z,27.72
2022-08-05T06:52:58.656Z,27.80
2022-08-05T06:55:06.960Z,27.95
2022-08-05T06:58:03.044Z,28.20
2022-08-05T06:59:30.602Z,28.64
2022-08-05T07:01:42.499Z,28.59
2022-08-05T07:03:44.396Z,28.38
2022-08-05T07:05:46.587Z,28.19
2022-08-05T07:07:48.541Z,28.14
2022-08-05T07:09:55.664Z,28.68
2022-08-05T07:12:00.799Z,28.81
2022-08-05T07:14:02.687Z,29.15
2022-08-05T07:16:06.338Z,29.57
2022-08-05T07:18:20.273Z,28.94
2022-08-05T07:20:33.476Z,29.44
2022-08-05T07:22:36.024Z,29.82
2022-08-05T07:24:43.993Z,29.51
2022-08-05T07:26:54.544Z,29.09
2022-08-05T07:28:56.488Z,28.64
2022-08-05T07:31:01.742Z,28.75
2022-08-05T07:33:10.014Z,29.70
2022-08-05T07:36:03.456Z,29.77
2022-08-05T07:37:36.198Z,29.40
2022-08-05T07:40:04.601Z,29.09
2022-08-05T07:42:08.619Z,28.85
2022-08-05T07:44:19.184Z,29.39
2022-08-05T07:46:24.674Z,29.73
2022-08-05T07:48:36.584Z,29.87
2022-08-05T07:50:49.586Z,30.31
2022-08-05T07:52:51.760Z,30.52
2022-08-05T07:54:55.205Z,29.70
2022-08-05T07:57:14.569Z,30.56
2022-08-05T07:59:23.144Z,30.86
2022-08-05T08:01:33.293Z,31.28
2022-08-05T08:03:44.590Z,31.66
2022-08-05T08:05:49.732Z,31.10
2022-08-05T08:08:00.115Z,30.74
2022-08-05T08:10:02.610Z,29.88
2022-08-05T08:12:13.618Z,30.39
2022-08-05T08:14:22.374Z,30.87
2022-08-05T08:16:35.618Z,30.66
2022-08-05T08:18:49.944Z,30.86
2022-08-05T08:21:02.548Z,30.71
2022-08-05T08:23:05.674Z,30.40
2022-08-05T08:25:16.222Z,30.19
2022-08-05T08:27:19.655Z,30.19
2022-08-05T08:30:04.118Z,29.54
2022-08-05T08:31:43.555Z,29.96
2022-08-05T08:33:45.940Z,29.65
2022-08-05T08:36:07.823Z,29.92
2022-08-05T08:38:16.317Z,29.82
2022-08-05T08:40:18.509Z,29.91
2022-08-05T08:42:34.608Z,30.00
2022-08-05T08:45:18.598Z,29.75
2022-08-05T08:47:47.179Z,29.79
2022-08-05T08:50:23.236Z,29.51
2022-08-05T08:52:05.655Z,29.80
2022-08-05T08:54:08.287Z,29.68
2022-08-05T08:56:10.652Z,29.43
2022-08-05T08:58:15.856Z,29.86
2022-08-05T09:00:19.426Z,29.70
2022-08-05T09:02:24.226Z,29.91
2022-08-05T09:04:30.183Z,29.79
2022-08-05T09:06:32.699Z,30.09
2022-08-05T09:08:40.138Z,30.35
2022-08-05T09:10:42.664Z,30.56
2022-08-05T09:12:51.099Z,30.45
2022-08-05T09:15:03.984Z,30.15
2022-08-05T09:17:40.967Z,30.32
2022-08-05T09:19:36.822Z,30.35
2022-08-05T09:22:23.427Z,30.03
2022-08-05T09:24:16.973Z,30.25
2022-08-05T09:26:20.820Z,30.41
2022-08-05T09:28:31.922Z,30.48
2022-08-05T09:30:35.078Z,30.22
2022-08-05T09:32:46.024Z,30.03
2022-08-05T09:34:53.450Z,29.86
2022-08-05T09:36:59.434Z,30.20
2022-08-05T09:39:18.261Z,29.95
2022-08-05T09:41:24.453Z,29.98
2022-08-05T09:43:40.750Z,29.90
2022-08-05T09:46:07.083Z,30.08
2022-08-05T09:48:32.331Z,30.29
2022-08-05T09:50:44.777Z,30.40
2022-08-05T09:52:47.125Z,30.36
2022-08-05T09:54:55.759Z,30.32
2022-08-05T09:57:01.795Z,30.92
2022-08-05T09:59:17.286Z,30.67
2022-08-05T10:01:31.990Z,30.57
2022-08-05T10:03:56.742Z,30.04
2022-08-05T10:06:15.844Z,30.56
2022-08-05T10:08:37.282Z,30.33
2022-08-05T10:10:48.223Z,30.55
2022-08-05T10:12:55.423Z,30.62
2022-08-05T10:15:21.920Z,30.61
2022-08-05T10:17:37.324Z,30.78
2022-08-05T10:20:02.954Z,30.68
2022-08-05T10:22:04.387Z,30.40
2022-08-05T10:24:09.209Z,30.66
2022-08-05T10:26:14.165Z,30.69
2022-08-05T10:28:29.005Z,30.58
2022-08-05T10:31:20.751Z,30.55
2022-08-05T10:33:02.203Z,30.33
2022-08-05T10:35:05.002Z,30.08
2022-08-05T10:37:07.262Z,30.00
2022-08-05T10:39:25.078Z,30.45
2022-08-05T10:41:47.386Z,30.57
2022-08-05T10:43:57.471Z,30.69
2022-08-05T10:46:07.124Z,31.00
2022-08-05T10:48:57.396Z,30.95
2022-08-05T10:51:21.845Z,31.00
2022-08-05T10:53:45.101Z,30.71
2022-08-05T10:56:25.369Z,30.98
2022-08-05T10:58:47.818Z,30.95
2022-08-05T11:00:55.036Z,30.75
2022-08-05T11:03:24.924Z,30.90
2022-08-05T11:05:29.333Z,31.00
2022-08-05T11:08:02.787Z,30.87
2022-08-05T11:10:03.960Z,31.17
2022-08-05T11:12:37.436Z,30.74
2022-08-05T11:15:11.382Z,30.82
2022-08-05T11:17:59.100Z,30.96
2022-08-05T11:20:16.961Z,31.20
2022-08-05T11:22:43.593Z,30.87
2022-08-05T11:26:06.279Z,31.05
2022-08-05T11:28:00.726Z,30.77
2022-08-05T11:30:02.941Z,31.11
2022-08-05T11:32:30.810Z,30.48
2022-08-05T11:34:37.941Z,30.52
2022-08-05T11:36:42.947Z,30.81
2022-08-05T11:38:50.941Z,31.27
2022-08-05T11:41:35.309Z,31.26
2022-08-05T11:44:04.513Z,30.80
2022-08-05T11:46:27.144Z,30.99
2022-08-05T11:48:11.520Z,31.48
2022-08-05T11:50:14.354Z,30.96
2022-08-05T11:52:29.465Z,30.66
2022-08-05T11:54:34.484Z,30.83
2022-08-05T11:56:50.071Z,30.69
2022-08-05T11:58:52.874Z,30.96
2022-08-05T12:01:08.347Z,31.22
2022-08-05T12:03:29.374Z,31.18
2022-08-05T12:05:39.657Z,30.77
2022-08-05T12:08:10.444Z,31.02
2022-08-05T12:10:09.176Z,31.02
2022-08-05T12:12:13.568Z,31.30
2022-08-05T12:14:15.745Z,31.22
2022-08-05T12:16:20.001Z,31.02
2022-08-05T12:18:34.805Z,30.98
2022-08-05T12:20:41.449Z,31.00
2022-08-05T12:22:43.285Z,30.84
2022-08-05T12:24:50.449Z,30.89
2022-08-05T12:26:53.933Z,31.17
2022-08-05T12:28:55.709Z,31.24
2022-08-05T12:30:58.448Z,30.73
2022-08-05T12:33:06.890Z,30.72
2022-08-05T12:35:39.698Z,30.86
2022-08-05T12:37:46.921Z,30.92
2022-08-05T12:39:51.917Z,31.10
2022-08-05T12:41:59.682Z,31.07
2022-08-05T12:44:11.617Z,30.97
2022-08-05T12:46:29.764Z,30.90
2022-08-05T12:48:39.568Z,30.98
2022-08-05T12:50:41.836Z,31.07
2022-08-05T12:52:57.900Z,31.02
2022-08-05T12:54:59.861Z,30.96
2022-08-05T12:57:09.247Z,30.83
2022-08-05T12:59:13.926Z,30.96
2022-08-05T13:02:01.886Z,31.10
2022-08-05T13:03:42.184Z,31.24
2022-08-05T13:05:47.465Z,31.30
2022-08-05T13:08:00.582Z,31.00
2022-08-05T13:10:03.139Z,30.84
2022-08-05T13:12:16.290Z,30.96
2022-08-05T13:14:20.204Z,31.22
2022-08-05T13:16:25.109Z,31.37
2022-08-05T13:18:37.763Z,31.43
2022-08-05T13:20:40.503Z,31.73
2022-08-05T13:22:47.032Z,31.57
2022-08-05T13:24:58.101Z,31.60
2022-08-05T13:27:02.789Z,31.45
2022-08-05T13:29:05.626Z,31.49
2022-08-05T13:31:10.950Z,31.33
2022-08-05T13:34:20.383Z,31.00
2022-08-05T13:35:47.611Z,31.17
2022-08-05T13:37:55.460Z,30.89
2022-08-05T13:40:16.297Z,31.02
2022-08-05T13:42:20.438Z,31.04
2022-08-05T13:44:22.171Z,31.30
2022-08-05T13:48:58.835Z,31.65
2022-08-05T13:51:07.788Z,31.45
2022-08-05T13:53:15.733Z,31.35
2022-08-05T13:55:41.139Z,31.30
2022-08-05T13:57:51.011Z,31.66
2022-08-05T13:59:57.082Z,31.41
2022-08-05T14:02:02.450Z,31.48
2022-08-05T14:04:04.177Z,31.45
2022-08-05T14:06:25.852Z,31.72
2022-08-05T14:08:32.546Z,31.64
2022-08-05T14:10:38.716Z,31.47
2022-08-05T14:12:55.371Z,31.59
2022-08-05T14:14:57.246Z,31.70
2022-08-05T14:17:00.000Z,31.73
2022-08-05T14:19:04.366Z,31.39
2022-08-05T14:21:24.065Z,31.24
2022-08-05T14:23:33.658Z,31.43
2022-08-05T14:25:45.065Z,31.29
2022-08-05T14:27:47.627Z,31.55
2022-08-05T14:29:51.332Z,31.58
2022-08-05T14:32:12.416Z,31.61
2022-08-05T14:34:16.264Z,31.43
2022-08-05T14:36:21.292Z,31.61
2022-08-05T14:38:31.833Z,31.53
2022-08-05T14:40:34.932Z,31.38
2022-08-05T14:42:36.811Z,31.44
2022-08-05T14:44:39.894Z,31.31
2022-08-05T14:46:43.432Z,31.33
2022-08-05T14:48:49.326Z,31.66
2022-08-05T14:50:51.888Z,31.81
2022-08-05T14:52:57.851Z,31.85
2022-08-05T14:55:00.293Z,31.81
2022-08-05T14:57:05.324Z,31.99
2022-08-05T14:59:11.651Z,31.90
2022-08-05T15:01:16.088Z,32.01
2022-08-05T15:03:18.603Z,32.03
2022-08-05T15:05:30.176Z,32.11
2022-08-05T15:08:05.328Z,31.97
2022-08-05T15:10:09.645Z,32.05
2022-08-05T15:12:16.979Z,32.28
2022-08-05T15:14:33.964Z,32.26
2022-08-05T15:16:38.945Z,31.92
2022-08-05T15:18:42.123Z,31.57
2022-08-05T15:20:49.034Z,31.46
2022-08-05T15:22:54.330Z,31.64
2022-08-05T15:24:56.948Z,31.76
2022-08-05T15:26:58.697Z,31.90
2022-08-05T15:29:02.445Z,31.93
2022-08-05T15:31:05.636Z,32.06
2022-08-05T15:33:07.537Z,31.53
2022-08-05T15:35:12.403Z,31.59
2022-08-05T15:37:17.206Z,31.59
2022-08-05T15:40:42.746Z,30.91
2022-08-05T15:41:57.836Z,31.60
2022-08-05T15:44:00.983Z,31.60
2022-08-05T15:46:06.173Z,31.59
2022-08-05T15:48:07.921Z,31.84
2022-08-05T15:50:15.431Z,32.11
2022-08-05T15:52:51.825Z,32.05
2022-08-05T15:54:41.333Z,32.06
2022-08-05T15:56:45.022Z,31.86
2022-08-05T15:58:47.627Z,32.11
2022-08-05T16:00:51.037Z,32.09
2022-08-05T16:03:06.268Z,32.11
2022-08-05T16:05:09.575Z,31.89
2022-08-05T16:07:13.227Z,31.71
2022-08-05T16:09:15.219Z,31.75
2022-08-05T16:11:17.364Z,31.93
2022-08-05T16:13:19.368Z,31.96
2022-08-05T16:15:32.754Z,31.64
2022-08-05T16:17:35.747Z,31.58
2022-08-05T16:20:04.584Z,31.70
2022-08-05T16:22:02.653Z,31.80
2022-08-05T16:24:05.726Z,31.70
2022-08-05T16:26:14.534Z,31.73
2022-08-05T16:28:16.595Z,31.64
2022-08-05T16:30:25.477Z,31.48
2022-08-05T16:32:29.650Z,31.61
2022-08-05T16:34:31.737Z,31.61
2022-08-05T16:36:33.742Z,31.71
2022-08-05T16:38:35.642Z,31.69
2022-08-05T16:40:37.727Z,31.47
2022-08-05T16:42:40.177Z,31.49
2022-08-05T16:44:41.943Z,31.45
2022-08-05T16:46:55.793Z,31.47
2022-08-05T16:48:58.277Z,31.63
2022-08-05T16:51:00.189Z,31.59
2022-08-05T16:53:12.442Z,31.60
2022-08-05T16:55:24.492Z,31.45
2022-08-05T16:57:30.143Z,31.50
2022-08-05T16:59:49.586Z,31.37
2022-08-05T17:02:04.848Z,31.26
2022-08-05T17:04:07.029Z,31.35
2022-08-05T17:06:09.013Z,31.16
2022-08-05T17:08:13.389Z,30.95
2022-08-05T17:10:15.691Z,30.78
2022-08-05T17:12:17.717Z,30.79
2022-08-05T17:14:36.862Z,30.72
2022-08-05T17:16:39.677Z,30.73
2022-08-05T17:18:41.651Z,30.60
2022-08-05T17:20:44.133Z,30.69
2022-08-05T17:22:45.987Z,30.46
2022-08-05T17:25:00.066Z,30.21
2022-08-05T17:27:02.247Z,30.07
2022-08-05T17:29:04.202Z,29.96
2022-08-05T17:31:24.206Z,29.90
2022-08-05T17:33:38.840Z,29.92
2022-08-05T17:36:09.153Z,29.81
2022-08-05T17:38:12.003Z,29.92
2022-08-05T17:40:22.232Z,29.91
2022-08-05T17:42:30.161Z,29.75
2022-08-05T17:44:34.353Z,29.56
2022-08-05T17:46:37.165Z,29.57
2022-08-05T17:48:38.944Z,29.48
2022-08-05T17:50:40.994Z,29.47
2022-08-05T17:52:52.718Z,29.11
2022-08-05T17:54:56.771Z,29.19
2022-08-05T17:56:58.834Z,29.08
2022-08-05T17:59:00.869Z,29.01
2022-08-05T18:01:09.550Z,28.83
2022-08-05T18:03:12.339Z,28.77
2022-08-05T18:05:28.042Z,28.76
2022-08-05T18:07:40.874Z,28.70
2022-08-05T18:09:59.926Z,28.48
2022-08-05T18:12:02.980Z,28.37
2022-08-05T18:14:06.646Z,28.13
2022-08-05T18:16:08.839Z,27.98
2022-08-05T18:18:15.622Z,27.95
2022-08-05T18:20:18.638Z,27.76
2022-08-05T18:22:21.891Z,27.85
2022-08-05T18:24:26.537Z,27.80
2022-08-05T18:26:32.067Z,27.60
2022-08-05T18:28:35.004Z,27.61
2022-08-05T18:30:39.049Z,27.61
2022-08-05T18:32:42.085Z,27.51
2022-08-05T18:34:55.720Z,27.28
2022-08-05T18:36:59.173Z,27.10
2022-08-05T18:39:01.903Z,26.91
2022-08-05T18:41:57.573Z,26.91
2022-08-05T18:43:27.435Z,26.67
2022-08-05T18:45:41.486Z,26.67
2022-08-05T18:47:44.446Z,26.62
2022-08-05T18:49:58.173Z,26.53
2022-08-05T18:52:05.456Z,26.56
2022-08-05T18:54:09.667Z,26.39
2022-08-05T18:56:12.563Z,26.42
2022-08-05T18:58:16.262Z,26.27
2022-08-05T19:00:19.933Z,26.21
2022-08-05T19:02:28.183Z,26.19
2022-08-05T19:05:01.612Z,25.99
2022-08-05T19:07:02.195Z,26.06
2022-08-05T19:09:04.602Z,25.99
2022-08-05T19:11:09.224Z,25.87
2022-08-05T19:13:15.918Z,25.85
2022-08-05T19:15:57.909Z,25.83
2022-08-05T19:18:08.306Z,25.78
2022-08-05T19:20:01.913Z,25.85
2022-08-05T19:22:05.079Z,25.86
2022-08-05T19:24:12.599Z,25.74
2022-08-05T19:26:15.056Z,25.71
2022-08-05T19:28:18.215Z,25.35
2022-08-05T19:30:20.584Z,25.45
2022-08-05T19:32:23.078Z,25.43
2022-08-05T19:34:28.290Z,25.35
2022-08-05T19:36:32.200Z,25.18
2022-08-05T19:38:36.004Z,25.23
2022-08-05T19:40:38.544Z,25.08
2022-08-05T19:42:41.189Z,24.88
2022-08-05T19:44:46.617Z,24.63
2022-08-05T19:46:50.243Z,24.87
2022-08-05T19:48:52.152Z,24.79
2022-08-05T19:50:54.045Z,24.58
2022-08-05T19:52:55.876Z,24.66
2022-08-05T19:54:57.585Z,24.53
2022-08-05T19:57:09.491Z,24.34
2022-08-05T19:59:51.073Z,24.41
2022-08-05T20:01:34.621Z,24.29
2022-08-05T20:03:40.990Z,24.21
2022-08-05T20:05:51.213Z,24.23
2022-08-05T20:07:57.972Z,24.25
2022-08-05T20:10:01.079Z,24.19
2022-08-05T20:12:03.189Z,24.29
2022-08-05T20:14:12.864Z,24.27
2022-08-05T20:16:19.516Z,24.17
2022-08-05T20:18:33.902Z,24.31
2022-08-05T20:20:38.727Z,24.23
2022-08-05T20:22:41.474Z,24.07
2022-08-05T20:24:46.033Z,24.17
2022-08-05T20:26:48.258Z,24.12
2022-08-05T20:28:52.780Z,24.12
2022-08-05T20:30:54.826Z,24.12
2022-08-05T20:32:56.570Z,24.18
2022-08-05T20:34:58.477Z,24.09
2022-08-05T20:37:00.330Z,24.12
2022-08-05T20:39:03.792Z,24.06
2022-08-05T20:41:08.177Z,24.04
2022-08-05T20:43:10.140Z,23.97
2022-08-05T20:45:12.495Z,23.88
2022-08-05T20:47:14.509Z,23.68
2022-08-05T20:49:24.152Z,23.60
2022-08-05T20:51:27.570Z,23.70
2022-08-05T20:53:36.530Z,23.53
2022-08-05T20:55:56.640Z,23.44
2022-08-05T20:58:04.551Z,23.44
2022-08-05T21:00:21.009Z,23.43
2022-08-05T21:02:29.726Z,23.22
2022-08-05T21:04:31.457Z,23.17
2022-08-05T21:06:33.391Z,23.23
2022-08-05T21:08:41.665Z,23.19
2022-08-05T21:10:48.970Z,23.27
2022-08-05T21:13:08.186Z,23.21
2022-08-05T21:15:13.127Z,23.15
2022-08-05T21:17:14.977Z,22.22
2022-08-05T21:19:17.350Z,22.42
2022-08-05T21:21:24.541Z,22.77
2022-08-05T21:23:26.360Z,22.81
2022-08-05T21:25:34.006Z,22.95
2022-08-05T21:27:38.877Z,23.02
2022-08-05T21:29:40.992Z,23.20
2022-08-05T21:31:42.716Z,23.22
2022-08-05T21:33:47.470Z,23.19
2022-08-05T21:35:58.550Z,23.27
2022-08-05T21:38:00.832Z,23.36
2022-08-05T21:40:06.345Z,23.48
2022-08-05T21:42:19.778Z,23.52
2022-08-05T21:44:36.797Z,23.31
2022-08-05T21:46:39.043Z,23.37
2022-08-05T21:48:41.382Z,23.38
2022-08-05T21:50:53.224Z,23.33
2022-08-05T21:52:58.943Z,23.28
2022-08-05T21:55:07.296Z,23.20
2022-08-05T21:57:30.231Z,23.10
2022-08-05T21:59:48.158Z,23.08
2022-08-05T22:01:54.584Z,22.92
2022-08-05T22:03:56.556Z,22.87
2022-08-05T22:05:58.625Z,22.83
2022-08-05T22:08:02.532Z,22.60
2022-08-05T22:10:06.185Z,22.71
2022-08-05T22:12:10.840Z,22.81
2022-08-05T22:14:33.461Z,22.76
2022-08-05T22:16:51.824Z,22.61
2022-08-05T22:18:58.457Z,22.63
2022-08-05T22:21:00.741Z,22.55
2022-08-05T22:23:16.749Z,22.46
2022-08-05T22:25:27.305Z,22.45
2022-08-05T22:28:10.258Z,22.35
2022-08-05T22:29:54.293Z,22.48
2022-08-05T22:32:02.630Z,22.54
2022-08-05T22:34:04.731Z,22.55
2022-08-05T22:36:07.834Z,22.47
2022-08-05T22:38:12.083Z,22.51
2022-08-05T22:40:16.578Z,22.54
2022-08-05T22:42:26.276Z,22.05
2022-08-05T22:44:29.439Z,22.09
2022-08-05T22:46:31.265Z,21.96
2022-08-05T22:48:34.567Z,22.04
2022-08-05T22:50:37.352Z,21.96
2022-08-05T22:52:52.525Z,22.11
2022-08-05T22:54:54.607Z,22.25
2022-08-05T22:56:57.058Z,22.39
2022-08-05T22:59:03.149Z,22.40
2022-08-05T23:01:21.721Z,22.52
2022-08-05T23:03:57.737Z,22.45
2022-08-05T23:06:01.335Z,22.68
2022-08-05T23:08:04.144Z,22.59
2022-08-05T23:10:06.757Z,22.81
2022-08-05T23:12:09.625Z,22.89
2022-08-05T23:14:12.699Z,22.87
2022-08-05T23:16:14.551Z,22.94
2022-08-05T23:18:35.003Z,23.00
2022-08-05T23:20:43.078Z,23.08
2022-08-05T23:22:47.570Z,22.97
2022-08-05T23:24:51.404Z,23.01
2022-08-05T23:26:53.502Z,23.19
2022-08-05T23:28:55.296Z,23.00
2022-08-05T23:31:16.298Z,23.26
2022-08-05T23:33:26.141Z,23.15
2022-08-05T23:35:41.148Z,23.14
2022-08-05T23:37:43.680Z,23.19
2022-08-05T23:39:54.354Z,23.27
2022-08-05T23:41:56.836Z,23.28
2022-08-05T23:44:08.674Z,23.34
2022-08-05T23:46:19.994Z,23.22
2022-08-05T23:48:23.696Z,23.08
2022-08-05T23:50:28.114Z,23.02
2022-08-05T23:52:36.160Z,22.95
2022-08-05T23:54:51.470Z,22.90
2022-08-05T23:56:54.796Z,23.01
2022-08-05T23:59:00.901Z,22.97
